sensor_id;sensor_type;location;lat;lon;timestamp;temperature;humidity
19348;DHT22;9810;52.480;9.806;2024-03-17T00:00:24;4.50;99.90
19348;DHT22;9810;52.480;9.806;2024-03-17T00:02:50;4.20;99.90
19348;DHT22;9810;52.480;9.806;2024-03-17T00:05:16;4.10;99.90
19348;DHT22;9810;52.480;9.806;2024-03-17T00:07:45;4.20;99.90
19348;DHT22;9810;52.480;9.806;2024-03-17T00:10:12;4.10;99.90
19348;DHT22;9810;52.480;9.806;2024-03-17T00:12:38;3.90;99.90
19348;DHT22;9810;52.480;9.806;2024-03-17T00:15:06;3.90;99.90
19348;DHT22;9810;52.480;9.806;2024-03-17T00:17:33;3.90;99.90
19348;DHT22;9810;52.480;9.806;2024-03-17T00:20:00;3.90;99.90
19348;DHT22;9810;52.480;9.806;2024-03-17T00:22:29;3.90;99.90
19348;DHT22;9810;52.480;9.806;2024-03-17T00:25:02;3.80;99.90
19348;DHT22;9810;52.480;9.806;2024-03-17T00:27:29;3.80;99.90
19348;DHT22;9810;52.480;9.806;2024-03-17T00:29:56;3.70;99.90
19348;DHT22;9810;52.480;9.806;2024-03-17T00:32:22;3.70;99.90
19348;DHT22;9810;52.480;9.806;2024-03-17T00:34:49;3.60;99.90
19348;DHT22;9810;52.480;9.806;2024-03-17T00:37:15;3.60;99.90
19348;DHT22;9810;52.480;9.806;2024-03-17T00:39:43;3.60;99.90
19348;DHT22;9810;52.480;9.806;2024-03-17T00:42:10;3.60;99.90
19348;DHT22;9810;52.480;9.806;2024-03-17T00:44:39;3.60;99.90
19348;DHT22;9810;52.480;9.806;2024-03-17T00:47:05;3.50;99.90
19348;DHT22;9810;52.480;9.806;2024-03-17T00:49:33;3.40;99.90
19348;DHT22;9810;52.480;9.806;2024-03-17T00:51:59;3.40;99.90
19348;DHT22;9810;52.480;9.806;2024-03-17T00:54:26;3.40;99.90
19348;DHT22;9810;52.480;9.806;2024-03-17T00:56:52;3.30;99.90
19348;DHT22;9810;52.480;9.806;2024-03-17T00:59:21;3.30;99.90
19348;DHT22;9810;52.480;9.806;2024-03-17T01:01:47;3.30;99.90
19348;DHT22;9810;52.480;9.806;2024-03-17T01:04:14;3.40;99.90
19348;DHT22;9810;52.480;9.806;2024-03-17T01:06:40;3.40;99.90
19348;DHT22;9810;52.480;9.806;2024-03-17T01:09:07;3.30;99.90
19348;DHT22;9810;52.480;9.806;2024-03-17T01:11:33;3.30;99.90
19348;DHT22;9810;52.480;9.806;2024-03-17T01:14:00;3.20;99.90
19348;DHT22;9810;52.480;9.806;2024-03-17T01:16:28;3.20;99.90
19348;DHT22;9810;52.480;9.806;2024-03-17T01:18:55;3.20;99.90
19348;DHT22;9810;52.480;9.806;2024-03-17T01:21:21;3.50;99.90
19348;DHT22;9810;52.480;9.806;2024-03-17T01:23:49;3.60;99.90
19348;DHT22;9810;52.480;9.806;2024-03-17T01:26:15;3.40;99.90
19348;DHT22;9810;52.480;9.806;2024-03-17T01:28:42;3.30;99.90
19348;DHT22;9810;52.480;9.806;2024-03-17T01:31:08;3.20;99.90
19348;DHT22;9810;52.480;9.806;2024-03-17T01:33:37;3.00;99.90
19348;DHT22;9810;52.480;9.806;2024-03-17T01:36:03;2.90;99.90
19348;DHT22;9810;52.480;9.806;2024-03-17T01:38:30;2.80;99.90
19348;DHT22;9810;52.480;9.806;2024-03-17T01:40:58;3.10;99.90
19348;DHT22;9810;52.480;9.806;2024-03-17T01:43:25;2.90;99.90
19348;DHT22;9810;52.480;9.806;2024-03-17T01:45:52;2.70;99.90
19348;DHT22;9810;52.480;9.806;2024-03-17T01:48:19;2.60;99.90
19348;DHT22;9810;52.480;9.806;2024-03-17T01:50:51;2.40;99.90
19348;DHT22;9810;52.480;9.806;2024-03-17T01:53:19;2.20;99.90
19348;DHT22;9810;52.480;9.806;2024-03-17T01:55:47;2.00;99.90
19348;DHT22;9810;52.480;9.806;2024-03-17T01:58:14;2.10;99.90
19348;DHT22;9810;52.480;9.806;2024-03-17T02:00:40;2.00;99.90
19348;DHT22;9810;52.480;9.806;2024-03-17T02:03:09;2.10;99.90
19348;DHT22;9810;52.480;9.806;2024-03-17T02:05:35;2.10;99.90
19348;DHT22;9810;52.480;9.806;2024-03-17T02:08:05;2.10;99.90
19348;DHT22;9810;52.480;9.806;2024-03-17T02:10:31;2.30;99.90
19348;DHT22;9810;52.480;9.806;2024-03-17T02:12:58;2.70;99.90
19348;DHT22;9810;52.480;9.806;2024-03-17T02:15:25;3.00;99.90
19348;DHT22;9810;52.480;9.806;2024-03-17T02:17:52;2.80;99.90
19348;DHT22;9810;52.480;9.806;2024-03-17T02:20:18;2.70;99.90
19348;DHT22;9810;52.480;9.806;2024-03-17T02:22:47;2.50;99.90
19348;DHT22;9810;52.480;9.806;2024-03-17T02:25:12;2.40;99.90
19348;DHT22;9810;52.480;9.806;2024-03-17T02:27:39;2.20;99.90
19348;DHT22;9810;52.480;9.806;2024-03-17T02:30:06;2.10;99.90
19348;DHT22;9810;52.480;9.806;2024-03-17T02:32:34;2.00;99.90
19348;DHT22;9810;52.480;9.806;2024-03-17T02:35:01;2.00;99.90
19348;DHT22;9810;52.480;9.806;2024-03-17T02:37:28;2.50;99.90
19348;DHT22;9810;52.480;9.806;2024-03-17T02:39:55;2.60;99.90
19348;DHT22;9810;52.480;9.806;2024-03-17T02:42:22;2.70;99.90
19348;DHT22;9810;52.480;9.806;2024-03-17T02:44:49;2.50;99.90
19348;DHT22;9810;52.480;9.806;2024-03-17T02:47:16;2.30;99.90
19348;DHT22;9810;52.480;9.806;2024-03-17T02:49:43;2.10;99.90
19348;DHT22;9810;52.480;9.806;2024-03-17T02:52:11;1.90;99.90
19348;DHT22;9810;52.480;9.806;2024-03-17T02:54:38;1.90;99.90
19348;DHT22;9810;52.480;9.806;2024-03-17T02:57:07;1.90;99.90
19348;DHT22;9810;52.480;9.806;2024-03-17T02:59:34;1.90;99.90
19348;DHT22;9810;52.480;9.806;2024-03-17T03:02:02;2.10;99.90
19348;DHT22;9810;52.480;9.806;2024-03-17T03:04:29;2.50;99.90
19348;DHT22;9810;52.480;9.806;2024-03-17T03:06:56;2.50;99.90
19348;DHT22;9810;52.480;9.806;2024-03-17T03:09:23;2.30;99.90
19348;DHT22;9810;52.480;9.806;2024-03-17T03:11:57;2.00;99.90
19348;DHT22;9810;52.480;9.806;2024-03-17T03:14:25;1.80;99.90
19348;DHT22;9810;52.480;9.806;2024-03-17T03:16:53;1.60;99.90
19348;DHT22;9810;52.480;9.806;2024-03-17T03:19:20;1.40;99.90
19348;DHT22;9810;52.480;9.806;2024-03-17T03:21:47;1.20;99.90
19348;DHT22;9810;52.480;9.806;2024-03-17T03:24:14;1.20;99.90
19348;DHT22;9810;52.480;9.806;2024-03-17T03:26:41;1.20;99.90
19348;DHT22;9810;52.480;9.806;2024-03-17T03:29:08;1.10;99.90
19348;DHT22;9810;52.480;9.806;2024-03-17T03:31:37;1.20;99.90
19348;DHT22;9810;52.480;9.806;2024-03-17T03:34:05;1.30;99.90
19348;DHT22;9810;52.480;9.806;2024-03-17T03:36:33;1.40;99.90
19348;DHT22;9810;52.480;9.806;2024-03-17T03:39:00;1.40;99.90
19348;DHT22;9810;52.480;9.806;2024-03-17T03:41:27;1.50;99.90
19348;DHT22;9810;52.480;9.806;2024-03-17T03:43:54;1.60;99.90
19348;DHT22;9810;52.480;9.806;2024-03-17T03:46:21;1.60;99.90
19348;DHT22;9810;52.480;9.806;2024-03-17T03:48:50;1.70;99.90
19348;DHT22;9810;52.480;9.806;2024-03-17T03:51:16;1.90;99.90
19348;DHT22;9810;52.480;9.806;2024-03-17T03:53:44;2.10;99.90
19348;DHT22;9810;52.480;9.806;2024-03-17T03:56:11;2.10;99.90
19348;DHT22;9810;52.480;9.806;2024-03-17T03:58:39;1.90;99.90
19348;DHT22;9810;52.480;9.806;2024-03-17T04:01:06;1.70;99.90
19348;DHT22;9810;52.480;9.806;2024-03-17T04:03:34;1.50;99.90
19348;DHT22;9810;52.480;9.806;2024-03-17T04:06:04;1.40;99.90
19348;DHT22;9810;52.480;9.806;2024-03-17T04:08:32;1.50;99.90
19348;DHT22;9810;52.480;9.806;2024-03-17T04:10:59;1.40;99.90
19348;DHT22;9810;52.480;9.806;2024-03-17T04:13:26;1.10;99.90
19348;DHT22;9810;52.480;9.806;2024-03-17T04:15:55;0.90;99.90
19348;DHT22;9810;52.480;9.806;2024-03-17T04:18:23;0.80;99.90
19348;DHT22;9810;52.480;9.806;2024-03-17T04:20:51;0.90;99.90
19348;DHT22;9810;52.480;9.806;2024-03-17T04:23:21;1.10;99.90
19348;DHT22;9810;52.480;9.806;2024-03-17T04:25:48;1.20;99.90
19348;DHT22;9810;52.480;9.806;2024-03-17T04:28:15;1.30;99.90
19348;DHT22;9810;52.480;9.806;2024-03-17T04:30:42;1.20;99.90
19348;DHT22;9810;52.480;9.806;2024-03-17T04:33:10;1.30;99.90
19348;DHT22;9810;52.480;9.806;2024-03-17T04:35:38;1.30;99.90
19348;DHT22;9810;52.480;9.806;2024-03-17T04:38:05;1.40;99.90
19348;DHT22;9810;52.480;9.806;2024-03-17T04:40:34;1.30;99.90
19348;DHT22;9810;52.480;9.806;2024-03-17T04:43:01;1.20;99.90
19348;DHT22;9810;52.480;9.806;2024-03-17T04:45:28;1.20;99.90
19348;DHT22;9810;52.480;9.806;2024-03-17T04:47:55;1.10;99.90
19348;DHT22;9810;52.480;9.806;2024-03-17T04:50:21;1.00;99.90
19348;DHT22;9810;52.480;9.806;2024-03-17T04:52:48;1.10;99.90
19348;DHT22;9810;52.480;9.806;2024-03-17T04:55:16;1.20;99.90
19348;DHT22;9810;52.480;9.806;2024-03-17T04:57:45;1.10;99.90
19348;DHT22;9810;52.480;9.806;2024-03-17T05:00:13;1.00;99.90
19348;DHT22;9810;52.480;9.806;2024-03-17T05:02:39;1.00;99.90
19348;DHT22;9810;52.480;9.806;2024-03-17T05:05:07;0.70;99.90
19348;DHT22;9810;52.480;9.806;2024-03-17T05:07:36;1.10;99.90
19348;DHT22;9810;52.480;9.806;2024-03-17T05:10:03;0.90;99.90
19348;DHT22;9810;52.480;9.806;2024-03-17T05:12:31;0.60;99.90
19348;DHT22;9810;52.480;9.806;2024-03-17T05:14:59;0.50;99.90
19348;DHT22;9810;52.480;9.806;2024-03-17T05:17:26;0.60;99.90
19348;DHT22;9810;52.480;9.806;2024-03-17T05:19:53;0.80;99.90
19348;DHT22;9810;52.480;9.806;2024-03-17T05:22:20;0.70;99.90
19348;DHT22;9810;52.480;9.806;2024-03-17T05:24:47;0.80;99.90
19348;DHT22;9810;52.480;9.806;2024-03-17T05:27:14;1.00;99.90
19348;DHT22;9810;52.480;9.806;2024-03-17T05:29:41;1.10;99.90
19348;DHT22;9810;52.480;9.806;2024-03-17T05:32:10;1.10;99.90
19348;DHT22;9810;52.480;9.806;2024-03-17T05:34:38;0.90;99.90
19348;DHT22;9810;52.480;9.806;2024-03-17T05:37:05;1.10;99.90
19348;DHT22;9810;52.480;9.806;2024-03-17T05:39:31;1.00;99.90
19348;DHT22;9810;52.480;9.806;2024-03-17T05:41:58;1.00;99.90
19348;DHT22;9810;52.480;9.806;2024-03-17T05:44:25;1.10;99.90
19348;DHT22;9810;52.480;9.806;2024-03-17T05:46:55;1.10;99.90
19348;DHT22;9810;52.480;9.806;2024-03-17T05:49:25;1.10;99.90
19348;DHT22;9810;52.480;9.806;2024-03-17T05:51:52;1.10;99.90
19348;DHT22;9810;52.480;9.806;2024-03-17T05:54:19;1.00;99.90
19348;DHT22;9810;52.480;9.806;2024-03-17T05:56:46;1.10;99.90
19348;DHT22;9810;52.480;9.806;2024-03-17T05:59:13;1.20;99.90
19348;DHT22;9810;52.480;9.806;2024-03-17T06:01:40;1.30;99.90
19348;DHT22;9810;52.480;9.806;2024-03-17T06:04:07;1.20;99.90
19348;DHT22;9810;52.480;9.806;2024-03-17T06:06:36;1.00;99.90
19348;DHT22;9810;52.480;9.806;2024-03-17T06:09:03;0.80;99.90
19348;DHT22;9810;52.480;9.806;2024-03-17T06:11:34;0.80;99.90
19348;DHT22;9810;52.480;9.806;2024-03-17T06:14:02;0.80;99.90
19348;DHT22;9810;52.480;9.806;2024-03-17T06:16:31;0.90;99.90
19348;DHT22;9810;52.480;9.806;2024-03-17T06:18:59;1.10;99.90
19348;DHT22;9810;52.480;9.806;2024-03-17T06:21:26;1.20;99.90
19348;DHT22;9810;52.480;9.806;2024-03-17T06:23:54;1.20;99.90
19348;DHT22;9810;52.480;9.806;2024-03-17T06:26:22;1.50;99.90
19348;DHT22;9810;52.480;9.806;2024-03-17T06:28:49;1.60;99.90
19348;DHT22;9810;52.480;9.806;2024-03-17T06:31:16;1.80;99.90
19348;DHT22;9810;52.480;9.806;2024-03-17T06:33:43;2.00;99.90
19348;DHT22;9810;52.480;9.806;2024-03-17T06:36:10;2.50;99.90
19348;DHT22;9810;52.480;9.806;2024-03-17T06:38:37;2.60;99.90
19348;DHT22;9810;52.480;9.806;2024-03-17T06:41:06;2.60;99.90
19348;DHT22;9810;52.480;9.806;2024-03-17T06:43:33;2.70;99.90
19348;DHT22;9810;52.480;9.806;2024-03-17T06:46:00;2.70;99.90
19348;DHT22;9810;52.480;9.806;2024-03-17T06:48:28;2.90;99.90
19348;DHT22;9810;52.480;9.806;2024-03-17T06:50:55;2.90;99.90
19348;DHT22;9810;52.480;9.806;2024-03-17T06:53:22;3.00;99.90
19348;DHT22;9810;52.480;9.806;2024-03-17T06:55:55;3.10;99.90
19348;DHT22;9810;52.480;9.806;2024-03-17T06:58:24;3.60;99.90
19348;DHT22;9810;52.480;9.806;2024-03-17T07:00:55;3.70;99.90
19348;DHT22;9810;52.480;9.806;2024-03-17T07:03:25;3.70;99.90
19348;DHT22;9810;52.480;9.806;2024-03-17T07:05:53;3.80;99.90
19348;DHT22;9810;52.480;9.806;2024-03-17T07:08:21;3.80;99.90
19348;DHT22;9810;52.480;9.806;2024-03-17T07:10:58;3.90;99.90
19348;DHT22;9810;52.480;9.806;2024-03-17T07:13:29;4.00;99.90
19348;DHT22;9810;52.480;9.806;2024-03-17T07:15:56;4.20;99.90
19348;DHT22;9810;52.480;9.806;2024-03-17T07:18:25;4.40;99.90
19348;DHT22;9810;52.480;9.806;2024-03-17T07:20:52;4.70;99.90
19348;DHT22;9810;52.480;9.806;2024-03-17T07:23:19;4.90;99.90
19348;DHT22;9810;52.480;9.806;2024-03-17T07:25:51;5.10;99.90
19348;DHT22;9810;52.480;9.806;2024-03-17T07:28:19;5.00;99.90
19348;DHT22;9810;52.480;9.806;2024-03-17T07:30:48;5.10;99.90
19348;DHT22;9810;52.480;9.806;2024-03-17T07:33:16;5.30;99.90
19348;DHT22;9810;52.480;9.806;2024-03-17T07:35:49;5.50;99.90
19348;DHT22;9810;52.480;9.806;2024-03-17T07:38:17;5.70;99.90
19348;DHT22;9810;52.480;9.806;2024-03-17T07:40:45;5.90;99.90
19348;DHT22;9810;52.480;9.806;2024-03-17T07:43:12;6.10;99.90
19348;DHT22;9810;52.480;9.806;2024-03-17T07:45:39;6.40;99.90
19348;DHT22;9810;52.480;9.806;2024-03-17T07:48:10;6.80;99.90
19348;DHT22;9810;52.480;9.806;2024-03-17T07:50:36;7.40;99.90
19348;DHT22;9810;52.480;9.806;2024-03-17T07:53:04;7.90;99.90
19348;DHT22;9810;52.480;9.806;2024-03-17T07:55:31;8.50;99.90
19348;DHT22;9810;52.480;9.806;2024-03-17T07:57:58;8.70;99.90
19348;DHT22;9810;52.480;9.806;2024-03-17T08:00:25;9.30;99.90
19348;DHT22;9810;52.480;9.806;2024-03-17T08:02:51;9.50;99.90
19348;DHT22;9810;52.480;9.806;2024-03-17T08:05:20;9.60;99.90
19348;DHT22;9810;52.480;9.806;2024-03-17T08:07:47;10.20;99.90
19348;DHT22;9810;52.480;9.806;2024-03-17T08:10:14;10.70;99.90
19348;DHT22;9810;52.480;9.806;2024-03-17T08:12:43;10.90;99.90
19348;DHT22;9810;52.480;9.806;2024-03-17T08:15:11;10.90;99.90
19348;DHT22;9810;52.480;9.806;2024-03-17T08:17:37;10.70;99.90
19348;DHT22;9810;52.480;9.806;2024-03-17T08:20:06;11.40;99.90
19348;DHT22;9810;52.480;9.806;2024-03-17T08:22:34;11.80;99.90
19348;DHT22;9810;52.480;9.806;2024-03-17T08:25:01;11.70;99.90
19348;DHT22;9810;52.480;9.806;2024-03-17T08:27:30;10.90;99.90
19348;DHT22;9810;52.480;9.806;2024-03-17T08:29:57;11.40;99.90
19348;DHT22;9810;52.480;9.806;2024-03-17T08:32:24;11.50;99.90
19348;DHT22;9810;52.480;9.806;2024-03-17T08:34:51;12.40;99.90
19348;DHT22;9810;52.480;9.806;2024-03-17T08:37:18;12.40;99.90
19348;DHT22;9810;52.480;9.806;2024-03-17T08:39:47;12.50;99.90
19348;DHT22;9810;52.480;9.806;2024-03-17T08:42:14;12.80;99.90
19348;DHT22;9810;52.480;9.806;2024-03-17T08:44:41;12.60;99.90
19348;DHT22;9810;52.480;9.806;2024-03-17T08:47:08;12.10;99.90
19348;DHT22;9810;52.480;9.806;2024-03-17T08:49:35;12.80;99.90
19348;DHT22;9810;52.480;9.806;2024-03-17T08:52:02;12.80;99.90
19348;DHT22;9810;52.480;9.806;2024-03-17T08:54:29;13.40;99.90
19348;DHT22;9810;52.480;9.806;2024-03-17T08:56:57;14.10;99.90
19348;DHT22;9810;52.480;9.806;2024-03-17T08:59:25;14.50;99.90
19348;DHT22;9810;52.480;9.806;2024-03-17T09:01:51;14.30;99.90
19348;DHT22;9810;52.480;9.806;2024-03-17T09:04:19;14.40;99.90
19348;DHT22;9810;52.480;9.806;2024-03-17T09:06:46;14.80;99.90
19348;DHT22;9810;52.480;9.806;2024-03-17T09:09:13;13.90;99.90
19348;DHT22;9810;52.480;9.806;2024-03-17T09:11:40;13.00;99.90
19348;DHT22;9810;52.480;9.806;2024-03-17T09:14:08;13.90;99.90
19348;DHT22;9810;52.480;9.806;2024-03-17T09:16:37;14.00;99.90
19348;DHT22;9810;52.480;9.806;2024-03-17T09:19:06;15.10;99.90
19348;DHT22;9810;52.480;9.806;2024-03-17T09:21:34;14.10;99.90
19348;DHT22;9810;52.480;9.806;2024-03-17T09:24:04;13.70;99.90
19348;DHT22;9810;52.480;9.806;2024-03-17T09:26:33;13.70;99.90
19348;DHT22;9810;52.480;9.806;2024-03-17T09:29:00;13.20;99.90
19348;DHT22;9810;52.480;9.806;2024-03-17T09:31:29;13.80;99.90
19348;DHT22;9810;52.480;9.806;2024-03-17T09:33:56;14.30;99.90
19348;DHT22;9810;52.480;9.806;2024-03-17T09:36:23;14.70;99.90
19348;DHT22;9810;52.480;9.806;2024-03-17T09:38:50;14.60;99.90
19348;DHT22;9810;52.480;9.806;2024-03-17T09:41:20;14.30;99.90
19348;DHT22;9810;52.480;9.806;2024-03-17T09:43:52;14.60;99.90
19348;DHT22;9810;52.480;9.806;2024-03-17T09:46:20;14.60;99.90
19348;DHT22;9810;52.480;9.806;2024-03-17T09:48:50;14.30;99.90
19348;DHT22;9810;52.480;9.806;2024-03-17T09:51:19;14.30;99.90
19348;DHT22;9810;52.480;9.806;2024-03-17T09:53:46;14.00;99.90
19348;DHT22;9810;52.480;9.806;2024-03-17T09:56:15;15.00;99.90
19348;DHT22;9810;52.480;9.806;2024-03-17T09:58:44;14.90;99.90
19348;DHT22;9810;52.480;9.806;2024-03-17T10:01:11;13.90;99.90
19348;DHT22;9810;52.480;9.806;2024-03-17T10:03:46;13.40;99.90
19348;DHT22;9810;52.480;9.806;2024-03-17T10:06:19;13.70;99.90
19348;DHT22;9810;52.480;9.806;2024-03-17T10:08:47;13.70;99.90
19348;DHT22;9810;52.480;9.806;2024-03-17T10:11:17;13.40;99.90
19348;DHT22;9810;52.480;9.806;2024-03-17T10:13:45;13.40;99.90
19348;DHT22;9810;52.480;9.806;2024-03-17T10:16:23;12.40;99.90
19348;DHT22;9810;52.480;9.806;2024-03-17T10:18:51;12.20;99.90
19348;DHT22;9810;52.480;9.806;2024-03-17T10:21:26;12.70;99.90
19348;DHT22;9810;52.480;9.806;2024-03-17T10:24:13;12.60;99.90
19348;DHT22;9810;52.480;9.806;2024-03-17T10:26:44;12.90;99.90
19348;DHT22;9810;52.480;9.806;2024-03-17T10:29:23;13.50;99.90
19348;DHT22;9810;52.480;9.806;2024-03-17T10:31:52;14.50;99.90
19348;DHT22;9810;52.480;9.806;2024-03-17T10:34:19;14.30;99.90
19348;DHT22;9810;52.480;9.806;2024-03-17T10:36:52;14.20;99.90
19348;DHT22;9810;52.480;9.806;2024-03-17T10:39:24;13.60;99.90
19348;DHT22;9810;52.480;9.806;2024-03-17T10:42:00;13.50;99.90
19348;DHT22;9810;52.480;9.806;2024-03-17T10:44:28;13.50;99.90
19348;DHT22;9810;52.480;9.806;2024-03-17T10:46:59;12.90;99.90
19348;DHT22;9810;52.480;9.806;2024-03-17T10:49:29;13.40;99.90
19348;DHT22;9810;52.480;9.806;2024-03-17T10:52:00;13.50;99.90
19348;DHT22;9810;52.480;9.806;2024-03-17T10:54:28;13.20;99.90
19348;DHT22;9810;52.480;9.806;2024-03-17T10:56:56;13.00;99.90
19348;DHT22;9810;52.480;9.806;2024-03-17T10:59:38;12.70;99.90
19348;DHT22;9810;52.480;9.806;2024-03-17T11:02:17;13.50;99.90
19348;DHT22;9810;52.480;9.806;2024-03-17T11:04:49;14.10;99.90
19348;DHT22;9810;52.480;9.806;2024-03-17T11:07:18;13.80;99.90
19348;DHT22;9810;52.480;9.806;2024-03-17T11:09:47;13.70;99.90
19348;DHT22;9810;52.480;9.806;2024-03-17T11:12:48;13.10;99.90
19348;DHT22;9810;52.480;9.806;2024-03-17T11:15:39;12.70;99.90
19348;DHT22;9810;52.480;9.806;2024-03-17T11:18:39;13.40;99.90
19348;DHT22;9810;52.480;9.806;2024-03-17T11:24:00;13.90;99.90
19348;DHT22;9810;52.480;9.806;2024-03-17T11:26:32;13.70;99.90
19348;DHT22;9810;52.480;9.806;2024-03-17T11:29:01;13.50;99.90
19348;DHT22;9810;52.480;9.806;2024-03-17T11:31:38;13.80;99.90
19348;DHT22;9810;52.480;9.806;2024-03-17T11:34:25;13.30;99.90
19348;DHT22;9810;52.480;9.806;2024-03-17T11:36:52;13.80;99.90
19348;DHT22;9810;52.480;9.806;2024-03-17T11:39:48;14.00;99.90
19348;DHT22;9810;52.480;9.806;2024-03-17T11:42:17;12.50;99.90
19348;DHT22;9810;52.480;9.806;2024-03-17T11:44:44;13.00;99.90
19348;DHT22;9810;52.480;9.806;2024-03-17T11:47:20;12.70;99.90
19348;DHT22;9810;52.480;9.806;2024-03-17T11:49:46;12.80;99.90
19348;DHT22;9810;52.480;9.806;2024-03-17T11:52:14;12.90;99.90
19348;DHT22;9810;52.480;9.806;2024-03-17T11:54:43;12.60;99.90
19348;DHT22;9810;52.480;9.806;2024-03-17T11:57:11;12.50;99.90
19348;DHT22;9810;52.480;9.806;2024-03-17T11:59:38;12.00;99.90
19348;DHT22;9810;52.480;9.806;2024-03-17T12:02:13;12.60;99.90
19348;DHT22;9810;52.480;9.806;2024-03-17T12:04:43;12.20;99.90
19348;DHT22;9810;52.480;9.806;2024-03-17T12:07:12;12.10;99.90
19348;DHT22;9810;52.480;9.806;2024-03-17T12:09:40;11.70;99.90
19348;DHT22;9810;52.480;9.806;2024-03-17T12:12:11;12.20;99.90
19348;DHT22;9810;52.480;9.806;2024-03-17T12:14:39;11.60;99.90
19348;DHT22;9810;52.480;9.806;2024-03-17T12:17:07;11.50;99.90
19348;DHT22;9810;52.480;9.806;2024-03-17T12:19:34;11.50;99.90
19348;DHT22;9810;52.480;9.806;2024-03-17T12:22:02;11.50;99.90
19348;DHT22;9810;52.480;9.806;2024-03-17T12:24:30;11.60;99.90
19348;DHT22;9810;52.480;9.806;2024-03-17T12:26:58;12.00;99.90
19348;DHT22;9810;52.480;9.806;2024-03-17T12:29:28;12.10;99.90
19348;DHT22;9810;52.480;9.806;2024-03-17T12:31:56;12.40;99.90
19348;DHT22;9810;52.480;9.806;2024-03-17T12:34:25;12.30;99.90
19348;DHT22;9810;52.480;9.806;2024-03-17T12:36:53;12.40;99.90
19348;DHT22;9810;52.480;9.806;2024-03-17T12:39:21;12.70;99.90
19348;DHT22;9810;52.480;9.806;2024-03-17T12:42:07;12.00;99.90
19348;DHT22;9810;52.480;9.806;2024-03-17T12:44:37;12.10;99.90
19348;DHT22;9810;52.480;9.806;2024-03-17T12:47:08;12.30;99.90
19348;DHT22;9810;52.480;9.806;2024-03-17T12:49:35;12.70;99.90
19348;DHT22;9810;52.480;9.806;2024-03-17T12:52:01;12.90;99.90
19348;DHT22;9810;52.480;9.806;2024-03-17T12:54:29;12.40;99.90
19348;DHT22;9810;52.480;9.806;2024-03-17T12:57:05;12.00;99.90
19348;DHT22;9810;52.480;9.806;2024-03-17T12:59:51;12.30;99.90
19348;DHT22;9810;52.480;9.806;2024-03-17T13:02:41;12.30;99.90
19348;DHT22;9810;52.480;9.806;2024-03-17T13:05:15;12.90;99.90
19348;DHT22;9810;52.480;9.806;2024-03-17T13:07:43;13.10;99.90
19348;DHT22;9810;52.480;9.806;2024-03-17T13:10:15;13.20;99.90
19348;DHT22;9810;52.480;9.806;2024-03-17T13:12:43;13.10;99.90
19348;DHT22;9810;52.480;9.806;2024-03-17T13:15:13;13.20;99.90
19348;DHT22;9810;52.480;9.806;2024-03-17T13:17:41;12.20;99.90
19348;DHT22;9810;52.480;9.806;2024-03-17T13:20:12;12.40;99.90
19348;DHT22;9810;52.480;9.806;2024-03-17T13:22:40;12.50;99.90
19348;DHT22;9810;52.480;9.806;2024-03-17T13:25:09;12.70;99.90
19348;DHT22;9810;52.480;9.806;2024-03-17T13:27:39;13.10;99.90
19348;DHT22;9810;52.480;9.806;2024-03-17T13:30:08;12.90;99.90
19348;DHT22;9810;52.480;9.806;2024-03-17T13:32:37;13.00;99.90
19348;DHT22;9810;52.480;9.806;2024-03-17T13:35:05;12.90;99.90
19348;DHT22;9810;52.480;9.806;2024-03-17T13:37:34;12.30;99.90
19348;DHT22;9810;52.480;9.806;2024-03-17T13:40:01;12.10;99.90
19348;DHT22;9810;52.480;9.806;2024-03-17T13:42:30;12.30;99.90
19348;DHT22;9810;52.480;9.806;2024-03-17T13:44:57;12.50;99.90
19348;DHT22;9810;52.480;9.806;2024-03-17T13:47:24;12.50;99.90
19348;DHT22;9810;52.480;9.806;2024-03-17T13:49:53;12.60;99.90
19348;DHT22;9810;52.480;9.806;2024-03-17T13:52:20;12.40;99.90
19348;DHT22;9810;52.480;9.806;2024-03-17T13:54:47;12.30;99.90
19348;DHT22;9810;52.480;9.806;2024-03-17T13:57:14;12.40;99.90
19348;DHT22;9810;52.480;9.806;2024-03-17T13:59:42;12.40;99.90
19348;DHT22;9810;52.480;9.806;2024-03-17T14:02:12;12.20;99.90
19348;DHT22;9810;52.480;9.806;2024-03-17T14:04:39;12.20;99.90
19348;DHT22;9810;52.480;9.806;2024-03-17T14:07:08;12.10;99.90
19348;DHT22;9810;52.480;9.806;2024-03-17T14:09:35;12.00;99.90
19348;DHT22;9810;52.480;9.806;2024-03-17T14:12:02;11.90;99.90
19348;DHT22;9810;52.480;9.806;2024-03-17T14:14:29;12.20;99.90
19348;DHT22;9810;52.480;9.806;2024-03-17T14:16:56;12.60;99.90
19348;DHT22;9810;52.480;9.806;2024-03-17T14:19:23;12.80;99.90
19348;DHT22;9810;52.480;9.806;2024-03-17T14:21:50;12.70;99.90
19348;DHT22;9810;52.480;9.806;2024-03-17T14:24:19;12.20;99.90
19348;DHT22;9810;52.480;9.806;2024-03-17T14:26:46;12.00;99.90
19348;DHT22;9810;52.480;9.806;2024-03-17T14:29:13;12.20;99.90
19348;DHT22;9810;52.480;9.806;2024-03-17T14:31:41;11.90;99.90
19348;DHT22;9810;52.480;9.806;2024-03-17T14:34:09;11.90;99.90
19348;DHT22;9810;52.480;9.806;2024-03-17T14:36:36;11.60;99.90
19348;DHT22;9810;52.480;9.806;2024-03-17T14:39:03;12.00;99.90
19348;DHT22;9810;52.480;9.806;2024-03-17T14:41:32;12.20;99.90
19348;DHT22;9810;52.480;9.806;2024-03-17T14:43:59;12.10;99.90
19348;DHT22;9810;52.480;9.806;2024-03-17T14:46:26;11.90;99.90
19348;DHT22;9810;52.480;9.806;2024-03-17T14:48:54;11.80;99.90
19348;DHT22;9810;52.480;9.806;2024-03-17T14:51:21;11.90;99.90
19348;DHT22;9810;52.480;9.806;2024-03-17T14:53:48;11.80;99.90
19348;DHT22;9810;52.480;9.806;2024-03-17T14:56:17;11.90;99.90
19348;DHT22;9810;52.480;9.806;2024-03-17T14:58:46;11.90;99.90
19348;DHT22;9810;52.480;9.806;2024-03-17T15:01:13;11.90;99.90
19348;DHT22;9810;52.480;9.806;2024-03-17T15:03:40;12.00;99.90
19348;DHT22;9810;52.480;9.806;2024-03-17T15:06:10;12.00;99.90
19348;DHT22;9810;52.480;9.806;2024-03-17T15:08:36;11.70;99.90
19348;DHT22;9810;52.480;9.806;2024-03-17T15:11:03;11.80;99.90
19348;DHT22;9810;52.480;9.806;2024-03-17T15:13:33;11.70;99.90
19348;DHT22;9810;52.480;9.806;2024-03-17T15:16:02;11.70;99.90
19348;DHT22;9810;52.480;9.806;2024-03-17T15:18:30;11.70;99.90
19348;DHT22;9810;52.480;9.806;2024-03-17T15:20:57;11.90;99.90
19348;DHT22;9810;52.480;9.806;2024-03-17T15:23:26;11.60;99.90
19348;DHT22;9810;52.480;9.806;2024-03-17T15:25:59;11.70;99.90
19348;DHT22;9810;52.480;9.806;2024-03-17T15:28:27;11.70;99.90
19348;DHT22;9810;52.480;9.806;2024-03-17T15:30:55;11.70;99.90
19348;DHT22;9810;52.480;9.806;2024-03-17T15:33:27;11.60;99.90
19348;DHT22;9810;52.480;9.806;2024-03-17T15:35:54;11.60;99.90
19348;DHT22;9810;52.480;9.806;2024-03-17T15:38:21;11.60;99.90
19348;DHT22;9810;52.480;9.806;2024-03-17T15:40:48;11.40;99.90
19348;DHT22;9810;52.480;9.806;2024-03-17T15:43:15;11.40;99.90
19348;DHT22;9810;52.480;9.806;2024-03-17T15:45:43;11.40;99.90
19348;DHT22;9810;52.480;9.806;2024-03-17T15:48:10;11.40;99.90
19348;DHT22;9810;52.480;9.806;2024-03-17T15:50:39;11.30;99.90
19348;DHT22;9810;52.480;9.806;2024-03-17T15:53:08;11.20;99.90
19348;DHT22;9810;52.480;9.806;2024-03-17T15:55:35;11.20;99.90
19348;DHT22;9810;52.480;9.806;2024-03-17T15:58:03;11.20;99.90
19348;DHT22;9810;52.480;9.806;2024-03-17T16:00:30;11.20;99.90
19348;DHT22;9810;52.480;9.806;2024-03-17T16:02:57;11.10;99.90
19348;DHT22;9810;52.480;9.806;2024-03-17T16:05:25;11.00;99.90